FredonyerEastRWIS Atmospheric Data: 12/07/2017 Summary  Detailed Graphs  Station List

  Temperature     Wind Precipitation Visibility
Timestamp Air Wet
Bulb
Dew-
point
24-hr
Max
24-hr
Min
Relative
Humidity
Atmospheric
Pressure
Avg
Speed
Avg
Dir
Spot
Speed
Spot
Dir
Max
Speed
Max
Dir
  Rate Situation Start End 1 hr 3 hr 6 hr 12 hr 24 hr   Situation
Date Time °F °F °F °F °F % in Hg mph ° mph ° mph ° Y/N in/hr text Date Time Date Time in in in in in mi text
12/07/2017 12:08 AM 19.40 17.24 9.68 40.46 15.44 65.0 Not Reported 1.57 NW 1.79 NW 2.46 NW No x No Precipitation 12/03/2017 01:52 PM 12/03/2017 01:53 PM x x x x x Not Reported Not Reported
12/07/2017 12:24 AM 19.58 17.42 10.04 40.46 15.44 65.0 Not Reported 2.24 NW 0.89 NW 3.13 NW No x No Precipitation 12/03/2017 01:52 PM 12/03/2017 01:53 PM x x x x x Not Reported Not Reported
12/07/2017 12:38 AM 18.86 16.88 9.50 40.46 15.44 66.0 Not Reported 1.12 NW 0.45 NW 1.57 NW No x No Precipitation 12/03/2017 01:52 PM 12/03/2017 01:53 PM x x x x x Not Reported Not Reported
12/07/2017 12:54 AM 18.32 16.16 8.96 40.46 15.44 66.0 Not Reported 0.22 NW 0.00 NW 1.57 NW No x No Precipitation 12/03/2017 01:52 PM 12/03/2017 01:53 PM x x x x x Not Reported Not Reported
12/07/2017 01:09 AM 17.78 15.62 8.60 40.46 15.44 66.0 Not Reported 0.00 N 0.00 N 0.00 x No x No Precipitation 12/03/2017 01:52 PM 12/03/2017 01:53 PM x x x x x Not Reported Not Reported
12/07/2017 01:23 AM 17.42 15.44 8.24 40.46 15.44 66.0 Not Reported 0.00 NW 0.00 NW 0.67 NW No x No Precipitation 12/03/2017 01:52 PM 12/03/2017 01:53 PM x x x x x Not Reported Not Reported
12/07/2017 01:38 AM 17.06 15.08 8.06 40.46 15.44 67.0 Not Reported 0.00 NW 0.00 NW 2.01 NW No x No Precipitation 12/03/2017 01:52 PM 12/03/2017 01:53 PM x x x x x Not Reported Not Reported
12/07/2017 01:53 AM 16.70 14.90 7.88 40.46 15.44 67.0 Not Reported 0.00 NW 0.00 NW 0.00 x No x No Precipitation 12/03/2017 01:52 PM 12/03/2017 01:53 PM x x x x x Not Reported Not Reported
12/07/2017 02:08 AM 16.34 14.54 7.34 40.46 15.44 67.0 Not Reported 0.00 NW 0.00 NW 0.00 x No x No Precipitation 12/03/2017 01:52 PM 12/03/2017 01:53 PM x x x x x Not Reported Not Reported
12/07/2017 02:23 AM 16.34 14.36 7.34 40.46 15.44 67.0 Not Reported 0.22 NW 0.00 NW 1.12 NW No x No Precipitation 12/03/2017 01:52 PM 12/03/2017 01:53 PM x x x x x Not Reported Not Reported
12/07/2017 02:38 AM 16.52 14.36 7.52 40.46 15.44 67.0 Not Reported 0.45 NW 0.00 NW 2.46 NW No x No Precipitation 12/03/2017 01:52 PM 12/03/2017 01:53 PM x x x x x Not Reported Not Reported
12/07/2017 02:54 AM 16.52 14.72 7.70 40.46 15.44 67.0 Not Reported 0.00 N 0.00 N 0.89 N No x No Precipitation 12/03/2017 01:52 PM 12/03/2017 01:53 PM x x x x x Not Reported Not Reported
12/07/2017 03:08 AM 16.34 14.36 7.34 40.46 15.44 67.0 Not Reported 0.00 NW 0.00 NW 0.00 x No x No Precipitation 12/03/2017 01:52 PM 12/03/2017 01:53 PM x x x x x Not Reported Not Reported
12/07/2017 03:24 AM 15.98 14.18 7.16 40.46 15.44 67.0 Not Reported 0.00 NW 0.00 NW 0.45 NW No x No Precipitation 12/03/2017 01:52 PM 12/03/2017 01:53 PM x x x x x Not Reported Not Reported
12/07/2017 03:38 AM 15.80 14.00 6.98 40.46 15.44 67.0 Not Reported 0.00 NW 0.00 NW 0.00 x No x No Precipitation 12/03/2017 01:52 PM 12/03/2017 01:53 PM x x x x x Not Reported Not Reported
12/07/2017 03:53 AM 15.44 13.64 6.62 40.46 15.44 67.0 Not Reported 0.00 NW 0.00 NW 0.22 NW No x No Precipitation 12/03/2017 01:52 PM 12/03/2017 01:53 PM x x x x x Not Reported Not Reported
12/07/2017 04:08 AM 15.44 13.64 6.44 40.46 15.44 67.0 Not Reported 0.00 NW 0.00 NW 0.00 x No x No Precipitation 12/03/2017 01:52 PM 12/03/2017 01:53 PM x x x x x Not Reported Not Reported
12/07/2017 04:23 AM 15.44 13.64 6.80 40.46 15.44 67.0 Not Reported 0.67 NW 0.22 NW 1.12 NW No x No Precipitation 12/03/2017 01:52 PM 12/03/2017 01:53 PM x x x x x Not Reported Not Reported
12/07/2017 04:38 AM 15.44 13.64 6.62 40.46 15.44 67.0 Not Reported 0.00 NW 0.00 NW 0.00 x No x No Precipitation 12/03/2017 01:52 PM 12/03/2017 01:53 PM x x x x x Not Reported Not Reported
12/07/2017 04:53 AM 15.44 13.64 6.44 40.46 15.44 67.0 Not Reported 0.00 NW 0.00 NW 1.12 NW No x No Precipitation 12/03/2017 01:52 PM 12/03/2017 01:53 PM x x x x x Not Reported Not Reported
12/07/2017 05:08 AM 15.08 13.10 6.08 40.46 14.90 66.0 Not Reported 0.00 NW 0.00 NW 0.00 x No x No Precipitation 12/03/2017 01:52 PM 12/03/2017 01:53 PM x x x x x Not Reported Not Reported
12/07/2017 05:23 AM 15.08 13.28 6.08 40.46 14.90 66.0 Not Reported 0.00 NW 0.00 NW 0.00 x No x No Precipitation 12/03/2017 01:52 PM 12/03/2017 01:53 PM x x x x x Not Reported Not Reported
12/07/2017 05:38 AM 15.44 13.64 6.44 40.46 14.90 66.0 Not Reported 0.00 N 0.00 N 1.57 N No x No Precipitation 12/03/2017 01:52 PM 12/03/2017 01:53 PM x x x x x Not Reported Not Reported
12/07/2017 05:53 AM 15.26 13.46 6.26 40.46 14.90 67.0 Not Reported 0.00 N 0.00 N 0.89 N No x No Precipitation 12/03/2017 01:52 PM 12/03/2017 01:53 PM x x x x x Not Reported Not Reported
12/07/2017 06:08 AM 15.08 13.28 6.08 40.46 14.90 66.0 Not Reported 0.00 N 0.00 N 0.22 N No x No Precipitation 12/03/2017 01:52 PM 12/03/2017 01:53 PM x x x x x Not Reported Not Reported
12/07/2017 06:23 AM 15.08 13.28 6.08 40.46 14.90 66.0 Not Reported 0.00 N 0.22 N 0.22 N No x No Precipitation 12/03/2017 01:52 PM 12/03/2017 01:53 PM x x x x x Not Reported Not Reported
12/07/2017 06:38 AM 15.08 13.28 6.08 40.46 14.90 66.0 Not Reported 0.00 NW 0.00 NW 0.89 NW No x No Precipitation 12/03/2017 01:52 PM 12/03/2017 01:53 PM x x x x x Not Reported Not Reported
12/07/2017 06:53 AM 14.90 13.10 5.90 40.46 14.90 66.0 Not Reported 0.22 NW 0.22 NW 0.89 NW No x No Precipitation 12/03/2017 01:52 PM 12/03/2017 01:53 PM x x x x x Not Reported Not Reported
12/07/2017 07:11 AM 14.90 13.10 5.90 40.46 14.72 66.0 Not Reported 0.00 NW 0.00 NW 0.00 x No x No Precipitation 12/03/2017 01:52 PM 12/03/2017 01:53 PM x x x x x Not Reported Not Reported
12/07/2017 07:24 AM 14.72 12.92 5.72 40.46 14.72 66.0 Not Reported 0.00 NW 0.00 NW 0.00 x No x No Precipitation 12/03/2017 01:52 PM 12/03/2017 01:53 PM x x x x x Not Reported Not Reported
12/07/2017 07:38 AM 14.90 13.10 5.90 40.46 14.72 66.0 Not Reported 0.00 NW 0.00 NW 0.00 x No x No Precipitation 12/03/2017 01:52 PM 12/03/2017 01:53 PM x x x x x Not Reported Not Reported
12/07/2017 07:54 AM 15.44 13.46 6.26 40.46 14.72 66.0 Not Reported 0.00 NW 0.00 NW 0.00 x No x No Precipitation 12/03/2017 01:52 PM 12/03/2017 01:53 PM x x x x x Not Reported Not Reported
12/07/2017 08:08 AM 15.98 14.18 6.80 40.46 14.72 66.0 Not Reported 0.00 NW 0.00 NW 0.00 x No x No Precipitation 12/03/2017 01:52 PM 12/03/2017 01:53 PM x x x x x Not Reported Not Reported
12/07/2017 08:23 AM 18.50 16.52 9.50 40.46 14.72 66.0 Not Reported 0.00 NW 0.00 NW 0.00 x No x No Precipitation 12/03/2017 01:52 PM 12/03/2017 01:53 PM x x x x x Not Reported Not Reported
12/07/2017 08:38 AM 22.10 19.94 12.92 40.46 14.72 67.0 Not Reported 0.00 NW 0.00 NW 0.00 x No x No Precipitation 12/03/2017 01:52 PM 12/03/2017 01:53 PM x x x x x Not Reported Not Reported
12/07/2017 08:53 AM 24.98 22.64 15.80 40.46 14.72 67.0 Not Reported 0.00 E 0.00 E 0.00 x No x No Precipitation 12/03/2017 01:52 PM 12/03/2017 01:53 PM x x x x x Not Reported Not Reported
12/07/2017 09:09 AM 27.14 24.44 17.78 40.46 14.72 67.0 Not Reported 0.45 SE 1.34 S 1.34 S No x No Precipitation 12/03/2017 01:52 PM 12/03/2017 01:53 PM x x x x x Not Reported Not Reported
12/07/2017 09:24 AM 28.58 25.88 19.04 40.46 14.72 66.0 Not Reported 0.00 SE 0.00 E 1.57 S No x No Precipitation 12/03/2017 01:52 PM 12/03/2017 01:53 PM x x x x x Not Reported Not Reported
12/07/2017 09:39 AM 30.56 26.96 18.50 40.46 14.72 60.0 Not Reported 1.57 SE 0.00 SE 3.13 N No x No Precipitation 12/03/2017 01:52 PM 12/03/2017 01:53 PM x x x x x Not Reported Not Reported
12/07/2017 09:53 AM 31.82 27.14 13.28 40.46 14.72 45.0 Not Reported 2.24 S 1.79 SE 5.59 E No x No Precipitation 12/03/2017 01:52 PM 12/03/2017 01:53 PM x x x x x Not Reported Not Reported
12/07/2017 10:08 AM 33.26 28.04 11.30 40.46 14.72 39.0 Not Reported 3.36 E 2.68 N 6.26 S No x No Precipitation 12/03/2017 01:52 PM 12/03/2017 01:53 PM x x x x x Not Reported Not Reported
12/07/2017 10:26 AM 34.34 28.94 10.76 40.46 14.72 36.0 Not Reported 1.79 SE 1.12 SE 6.04 SE No x No Precipitation 12/03/2017 01:52 PM 12/03/2017 01:53 PM x x x x x Not Reported Not Reported
12/07/2017 10:39 AM 35.42 29.84 10.22 40.46 14.72 34.0 Not Reported 2.46 NE 2.24 NE 6.93 E No x No Precipitation 12/03/2017 01:52 PM 12/03/2017 01:53 PM x x x x x Not Reported Not Reported
12/07/2017 10:53 AM 35.60 29.84 10.04 40.46 14.72 33.0 Not Reported 3.58 S 2.01 SE 6.26 S No x No Precipitation 12/03/2017 01:52 PM 12/03/2017 01:53 PM x x x x x Not Reported Not Reported
12/07/2017 11:09 AM 36.86 30.74 9.86 40.46 14.72 31.0 Not Reported 2.01 SE 4.03 S 7.38 S No x No Precipitation 12/03/2017 01:52 PM 12/03/2017 01:53 PM x x x x x Not Reported Not Reported
12/07/2017 11:24 AM 37.76 31.46 9.86 40.46 14.72 30.0 Not Reported 1.79 SE 2.68 SE 6.04 SE No x No Precipitation 12/03/2017 01:52 PM 12/03/2017 01:53 PM x x x x x Not Reported Not Reported
12/07/2017 11:38 AM 37.40 31.28 8.96 40.46 14.72 30.0 Not Reported 0.89 NW 3.13 S 7.61 SE No x No Precipitation 12/03/2017 01:52 PM 12/03/2017 01:53 PM x x x x x Not Reported Not Reported
12/07/2017 11:53 AM 39.02 32.18 8.96 40.46 14.72 28.0 Not Reported 2.91 SE 5.82 SE 6.26 S No x No Precipitation 12/03/2017 01:52 PM 12/03/2017 01:53 PM x x x x x Not Reported Not Reported
12/07/2017 12:09 PM 39.74 32.90 8.60 40.46 14.72 27.0 Not Reported 1.12 NW 2.24 NW 7.38 S No x No Precipitation 12/03/2017 01:52 PM 12/03/2017 01:53 PM x x x x x Not Reported Not Reported
12/07/2017 12:23 PM 40.64 33.62 8.06 40.64 14.72 25.0 Not Reported 2.24 E 1.34 E 6.49 SE No x No Precipitation 12/03/2017 01:52 PM 12/03/2017 01:53 PM x x x x x Not Reported Not Reported
12/07/2017 12:39 PM 40.64 33.80 7.34 41.18 14.72 24.0 Not Reported 2.46 E 3.58 N 6.04 NE No x No Precipitation 12/03/2017 01:52 PM 12/03/2017 01:53 PM x x x x x Not Reported Not Reported
12/07/2017 12:53 PM 41.00 33.80 7.52 41.36 14.72 24.0 Not Reported 3.58 SE 6.71 E 8.05 SE No x No Precipitation 12/03/2017 01:52 PM 12/03/2017 01:53 PM x x x x x Not Reported Not Reported
12/07/2017 01:09 PM 40.46 33.62 7.34 41.36 14.72 24.0 Not Reported 3.58 E 3.13 SE 5.59 NE No x No Precipitation 12/03/2017 01:52 PM 12/03/2017 01:53 PM x x x x x Not Reported Not Reported
12/07/2017 01:23 PM 40.28 33.26 6.98 41.36 14.72 24.0 Not Reported 3.13 SE 2.24 S 6.93 E No x No Precipitation 12/03/2017 01:52 PM 12/03/2017 01:53 PM x x x x x Not Reported Not Reported
12/07/2017 01:38 PM 39.74 33.08 6.98 41.36 14.72 25.0 Not Reported 3.80 SE 1.79 SE 7.61 E No x No Precipitation 12/03/2017 01:52 PM 12/03/2017 01:53 PM x x x x x Not Reported Not Reported
12/07/2017 01:54 PM 40.82 33.80 7.34 41.36 14.72 24.0 Not Reported 1.34 NE 3.58 S 7.61 SE No x No Precipitation 12/03/2017 01:52 PM 12/03/2017 01:53 PM x x x x x Not Reported Not Reported
12/07/2017 02:08 PM 40.46 33.62 7.70 41.36 14.72 25.0 Not Reported 4.03 SE 3.13 S 6.26 SE No x No Precipitation 12/03/2017 01:52 PM 12/03/2017 01:53 PM x x x x x Not Reported Not Reported
12/07/2017 02:23 PM 41.00 33.98 8.06 41.36 14.72 25.0 Not Reported 2.68 E 4.25 E 7.61 NE No x No Precipitation 12/03/2017 01:52 PM 12/03/2017 01:53 PM x x x x x Not Reported Not Reported
12/07/2017 02:39 PM 40.10 33.26 8.24 41.36 14.72 26.0 Not Reported 3.36 NE 1.34 E 8.05 SE No x No Precipitation 12/03/2017 01:52 PM 12/03/2017 01:53 PM x x x x x Not Reported Not Reported
12/07/2017 02:55 PM 39.38 32.72 7.88 41.36 14.72 26.0 Not Reported 4.03 SE 4.70 SE 6.26 S No x No Precipitation 12/03/2017 01:52 PM 12/03/2017 01:53 PM x x x x x Not Reported Not Reported
12/07/2017 03:08 PM 38.84 32.18 7.52 41.36 14.72 26.0 Not Reported 2.91 NE 1.12 NE 5.82 SE No x No Precipitation 12/03/2017 01:52 PM 12/03/2017 01:53 PM x x x x x Not Reported Not Reported
12/07/2017 03:24 PM 37.94 31.64 6.98 41.36 14.72 27.0 Not Reported 1.57 NE 0.00 E 5.59 SE No x No Precipitation 12/03/2017 01:52 PM 12/03/2017 01:53 PM x x x x x Not Reported Not Reported
12/07/2017 03:38 PM 37.76 31.46 7.16 41.36 14.72 27.0 Not Reported 0.00 W 0.00 W 2.68 S No x No Precipitation 12/03/2017 01:52 PM 12/03/2017 01:53 PM x x x x x Not Reported Not Reported
12/07/2017 03:55 PM 34.34 28.76 6.44 41.36 14.72 30.0 Not Reported 0.89 W 1.79 N 2.01 NW No x No Precipitation 12/03/2017 01:52 PM 12/03/2017 01:53 PM x x x x x Not Reported Not Reported
12/07/2017 04:08 PM 32.18 26.96 6.62 41.36 14.72 33.0 Not Reported 0.45 N 0.67 N 2.24 NE No x No Precipitation 12/03/2017 01:52 PM 12/03/2017 01:53 PM x x x x x Not Reported Not Reported
12/07/2017 04:23 PM 30.56 25.70 7.34 41.36 14.72 37.0 Not Reported 0.89 N 0.89 N 1.34 NE No x No Precipitation 12/03/2017 01:52 PM 12/03/2017 01:53 PM x x x x x Not Reported Not Reported
12/07/2017 04:38 PM 28.94 24.44 7.52 41.36 14.72 39.0 Not Reported 0.67 N 0.89 N 1.12 N No x No Precipitation 12/03/2017 01:52 PM 12/03/2017 01:53 PM x x x x x Not Reported Not Reported
12/07/2017 04:53 PM 27.50 23.36 7.88 41.36 14.72 42.0 Not Reported 0.00 N 0.00 N 0.89 N No x No Precipitation 12/03/2017 01:52 PM 12/03/2017 01:53 PM x x x x x Not Reported Not Reported
12/07/2017 05:09 PM 26.42 22.46 7.88 41.36 14.72 44.0 Not Reported 0.00 NW 0.00 NW 1.57 NW No x No Precipitation 12/03/2017 01:52 PM 12/03/2017 01:53 PM x x x x x Not Reported Not Reported
12/07/2017 05:24 PM 25.88 21.92 8.42 41.36 14.72 47.0 Not Reported 0.00 NW 0.00 NW 0.00 x No x No Precipitation 12/03/2017 01:52 PM 12/03/2017 01:53 PM x x x x x Not Reported Not Reported
12/07/2017 05:39 PM 24.98 21.56 8.78 41.36 14.72 49.0 Not Reported 0.00 S 0.00 S 0.00 x No x No Precipitation 12/03/2017 01:52 PM 12/03/2017 01:53 PM x x x x x Not Reported Not Reported
12/07/2017 05:53 PM 24.80 21.38 9.32 41.36 14.72 51.0 Not Reported 0.22 S 0.00 S 1.34 SE No x No Precipitation 12/03/2017 01:52 PM 12/03/2017 01:53 PM x x x x x Not Reported Not Reported
12/07/2017 06:08 PM 24.26 21.02 9.50 41.36 14.72 52.0 Not Reported 0.00 S 0.00 S 0.00 x No x No Precipitation 12/03/2017 01:52 PM 12/03/2017 01:53 PM x x x x x Not Reported Not Reported
12/07/2017 06:23 PM 23.90 20.84 10.22 41.36 14.72 54.0 Not Reported 0.00 S 0.00 S 0.00 x No x No Precipitation 12/03/2017 01:52 PM 12/03/2017 01:53 PM x x x x x Not Reported Not Reported
12/07/2017 06:38 PM 23.72 20.66 10.40 41.36 14.72 56.0 Not Reported 0.00 S 0.00 S 0.00 x No x No Precipitation 12/03/2017 01:52 PM 12/03/2017 01:53 PM x x x x x Not Reported Not Reported
12/07/2017 06:55 PM 23.18 20.30 10.58 41.36 14.72 58.0 Not Reported 0.00 W 0.00 W 0.89 W No x No Precipitation 12/03/2017 01:52 PM 12/03/2017 01:53 PM x x x x x Not Reported Not Reported
12/07/2017 07:09 PM 22.82 20.12 10.76 41.36 14.72 59.0 Not Reported 0.00 W 0.00 W 0.00 x No x No Precipitation 12/03/2017 01:52 PM 12/03/2017 01:53 PM x x x x x Not Reported Not Reported
12/07/2017 07:24 PM 22.64 19.76 10.76 41.36 14.72 59.0 Not Reported 0.00 W 0.00 W 0.67 W No x No Precipitation 12/03/2017 01:52 PM 12/03/2017 01:53 PM x x x x x Not Reported Not Reported
12/07/2017 07:38 PM 22.46 19.76 11.12 41.36 14.72 61.0 Not Reported 0.00 W 0.00 W 0.67 W No x No Precipitation 12/03/2017 01:52 PM 12/03/2017 01:53 PM x x x x x Not Reported Not Reported
12/07/2017 07:54 PM 22.28 19.58 11.12 41.36 14.72 61.0 Not Reported 0.00 E 0.00 E 0.00 x No x No Precipitation 12/03/2017 01:52 PM 12/03/2017 01:53 PM x x x x x Not Reported Not Reported
12/07/2017 08:08 PM 21.92 19.40 11.12 41.36 14.72 62.0 Not Reported 0.00 NE 0.00 NE 0.00 x No x No Precipitation 12/03/2017 01:52 PM 12/03/2017 01:53 PM x x x x x Not Reported Not Reported
12/07/2017 08:23 PM 21.74 19.22 10.94 41.36 14.72 63.0 Not Reported 0.00 NE 0.00 NE 0.00 x No x No Precipitation 12/03/2017 01:52 PM 12/03/2017 01:53 PM x x x x x Not Reported Not Reported
12/07/2017 08:38 PM 21.74 19.22 11.12 41.36 14.72 63.0 Not Reported 0.22 N 1.12 W 2.01 NE No x No Precipitation 12/03/2017 01:52 PM 12/03/2017 01:53 PM x x x x x Not Reported Not Reported
12/07/2017 08:54 PM 21.56 18.86 11.30 41.36 14.72 64.0 Not Reported 0.00 SW 0.00 SW 0.00 x No x No Precipitation 12/03/2017 01:52 PM 12/03/2017 01:53 PM x x x x x Not Reported Not Reported
12/07/2017 09:08 PM 20.84 18.50 10.94 41.36 14.72 64.0 Not Reported 0.00 SW 0.00 SW 0.45 SW No x No Precipitation 12/03/2017 01:52 PM 12/03/2017 01:53 PM x x x x x Not Reported Not Reported
12/07/2017 09:23 PM 20.66 18.32 10.76 41.36 14.72 65.0 Not Reported 0.00 SW 0.00 SW 0.22 SW No x No Precipitation 12/03/2017 01:52 PM 12/03/2017 01:53 PM x x x x x Not Reported Not Reported
12/07/2017 09:39 PM 20.66 18.32 11.12 41.36 14.72 65.0 Not Reported 0.45 N 0.00 NW 1.57 N No x No Precipitation 12/03/2017 01:52 PM 12/03/2017 01:53 PM x x x x x Not Reported Not Reported
12/07/2017 09:55 PM 20.66 18.14 11.12 41.36 14.72 66.0 Not Reported 0.00 NW 0.00 NW 0.00 x No x No Precipitation 12/03/2017 01:52 PM 12/03/2017 01:53 PM x x x x x Not Reported Not Reported
12/07/2017 10:09 PM 20.48 18.14 11.12 41.36 14.72 66.0 Not Reported 0.00 N 0.00 NW 1.12 NW No x No Precipitation 12/03/2017 01:52 PM 12/03/2017 01:53 PM x x x x x Not Reported Not Reported
12/07/2017 10:24 PM 19.94 17.78 10.94 41.36 14.72 67.0 Not Reported 0.00 NW 0.00 NW 0.00 x No x No Precipitation 12/03/2017 01:52 PM 12/03/2017 01:53 PM x x x x x Not Reported Not Reported
12/07/2017 10:38 PM 19.58 17.60 10.58 41.36 14.72 67.0 Not Reported 0.00 NW 0.00 NW 0.00 x No x No Precipitation 12/03/2017 01:52 PM 12/03/2017 01:53 PM x x x x x Not Reported Not Reported
12/07/2017 10:53 PM 19.76 17.78 10.94 41.36 14.72 67.0 Not Reported 0.00 N 0.00 NW 0.22 NW No x No Precipitation 12/03/2017 01:52 PM 12/03/2017 01:53 PM x x x x x Not Reported Not Reported
12/07/2017 11:09 PM 19.94 17.96 11.12 41.36 14.72 67.0 Not Reported 0.00 N 0.00 NW 0.00 x No x No Precipitation 12/03/2017 01:52 PM 12/03/2017 01:53 PM x x x x x Not Reported Not Reported
12/07/2017 11:24 PM 19.58 17.60 10.76 41.36 14.72 67.0 Not Reported 0.00 N 0.00 NW 0.22 NW No x No Precipitation 12/03/2017 01:52 PM 12/03/2017 01:53 PM x x x x x Not Reported Not Reported
12/07/2017 11:38 PM 19.58 17.42 10.58 41.36 14.72 67.0 Not Reported 0.00 N 0.00 N 1.34 N No x No Precipitation 12/03/2017 01:52 PM 12/03/2017 01:53 PM x x x x x Not Reported Not Reported
12/07/2017 11:53 PM 19.22 17.24 10.40 41.36 14.72 67.0 Not Reported 0.00 N 0.00 N 0.00 x No x No Precipitation 12/03/2017 01:52 PM 12/03/2017 01:53 PM x x x x x Not Reported Not Reported